sensor_id;sensor_type;location;lat;lon;timestamp;P1;durP1;ratioP1;P2;durP2;ratioP2
33148;SDS011;19506;51.040;3.856;2022-10-16T00:01:13;9.57;;;4.72;;
33148;SDS011;19506;51.040;3.856;2022-10-16T00:03:41;8.65;;;4.47;;
33148;SDS011;19506;51.040;3.856;2022-10-16T00:06:08;11.50;;;4.38;;
33148;SDS011;19506;51.040;3.856;2022-10-16T00:08:35;14.55;;;4.18;;
33148;SDS011;19506;51.040;3.856;2022-10-16T00:11:05;11.10;;;3.92;;
33148;SDS011;19506;51.040;3.856;2022-10-16T00:13:34;7.30;;;3.83;;
33148;SDS011;19506;51.040;3.856;2022-10-16T00:16:01;10.43;;;4.15;;
33148;SDS011;19506;51.040;3.856;2022-10-16T00:18:28;7.40;;;4.97;;
33148;SDS011;19506;51.040;3.856;2022-10-16T00:20:54;8.57;;;4.53;;
33148;SDS011;19506;51.040;3.856;2022-10-16T00:23:21;7.72;;;4.43;;
33148;SDS011;19506;51.040;3.856;2022-10-16T00:26:01;7.93;;;4.07;;
33148;SDS011;19506;51.040;3.856;2022-10-16T00:28:30;10.80;;;4.05;;
33148;SDS011;19506;51.040;3.856;2022-10-16T00:30:56;8.50;;;3.92;;
33148;SDS011;19506;51.040;3.856;2022-10-16T00:33:22;5.88;;;3.28;;
33148;SDS011;19506;51.040;3.856;2022-10-16T00:35:48;8.88;;;3.97;;
33148;SDS011;19506;51.040;3.856;2022-10-16T00:38:15;9.50;;;3.88;;
33148;SDS011;19506;51.040;3.856;2022-10-16T00:40:40;7.82;;;4.25;;
33148;SDS011;19506;51.040;3.856;2022-10-16T00:43:14;15.93;;;4.05;;
33148;SDS011;19506;51.040;3.856;2022-10-16T00:45:59;6.22;;;4.28;;
33148;SDS011;19506;51.040;3.856;2022-10-16T00:48:26;6.82;;;4.60;;
33148;SDS011;19506;51.040;3.856;2022-10-16T00:50:51;4.85;;;3.42;;
33148;SDS011;19506;51.040;3.856;2022-10-16T00:53:18;12.95;;;4.30;;
33148;SDS011;19506;51.040;3.856;2022-10-16T00:55:44;6.63;;;3.22;;
33148;SDS011;19506;51.040;3.856;2022-10-16T00:58:11;4.53;;;2.90;;
33148;SDS011;19506;51.040;3.856;2022-10-16T01:00:37;9.30;;;3.67;;
33148;SDS011;19506;51.040;3.856;2022-10-16T01:03:22;6.65;;;3.88;;
33148;SDS011;19506;51.040;3.856;2022-10-16T01:05:57;9.25;;;3.78;;
33148;SDS011;19506;51.040;3.856;2022-10-16T01:08:43;6.72;;;3.83;;
33148;SDS011;19506;51.040;3.856;2022-10-16T01:11:33;7.95;;;3.45;;
33148;SDS011;19506;51.040;3.856;2022-10-16T01:14:11;5.15;;;3.17;;
33148;SDS011;19506;51.040;3.856;2022-10-16T01:16:47;8.40;;;3.60;;
33148;SDS011;19506;51.040;3.856;2022-10-16T01:19:26;7.63;;;3.40;;
33148;SDS011;19506;51.040;3.856;2022-10-16T01:22:15;4.38;;;3.10;;
33148;SDS011;19506;51.040;3.856;2022-10-16T01:24:45;9.57;;;3.88;;
33148;SDS011;19506;51.040;3.856;2022-10-16T01:35:05;7.55;;;3.63;;
33148;SDS011;19506;51.040;3.856;2022-10-16T01:40:37;6.97;;;2.83;;
33148;SDS011;19506;51.040;3.856;2022-10-16T01:43:11;5.63;;;3.20;;
33148;SDS011;19506;51.040;3.856;2022-10-16T01:45:40;5.80;;;3.20;;
33148;SDS011;19506;51.040;3.856;2022-10-16T01:48:07;7.30;;;3.80;;
33148;SDS011;19506;51.040;3.856;2022-10-16T01:50:37;4.70;;;2.65;;
33148;SDS011;19506;51.040;3.856;2022-10-16T01:53:05;4.35;;;2.90;;
33148;SDS011;19506;51.040;3.856;2022-10-16T01:55:35;7.43;;;3.03;;
33148;SDS011;19506;51.040;3.856;2022-10-16T01:58:06;5.53;;;3.17;;
33148;SDS011;19506;51.040;3.856;2022-10-16T02:00:36;3.42;;;2.45;;
33148;SDS011;19506;51.040;3.856;2022-10-16T02:03:04;6.30;;;2.90;;
33148;SDS011;19506;51.040;3.856;2022-10-16T02:05:34;12.13;;;2.70;;
33148;SDS011;19506;51.040;3.856;2022-10-16T02:08:06;4.32;;;2.60;;
33148;SDS011;19506;51.040;3.856;2022-10-16T02:10:32;7.78;;;2.63;;
33148;SDS011;19506;51.040;3.856;2022-10-16T02:13:02;6.05;;;2.55;;
33148;SDS011;19506;51.040;3.856;2022-10-16T02:15:35;5.43;;;2.65;;
33148;SDS011;19506;51.040;3.856;2022-10-16T02:18:02;4.70;;;2.88;;
33148;SDS011;19506;51.040;3.856;2022-10-16T02:20:30;5.88;;;2.75;;
33148;SDS011;19506;51.040;3.856;2022-10-16T02:23:01;7.05;;;2.72;;
33148;SDS011;19506;51.040;3.856;2022-10-16T02:25:32;4.95;;;2.55;;
33148;SDS011;19506;51.040;3.856;2022-10-16T02:30:32;6.35;;;3.08;;
33148;SDS011;19506;51.040;3.856;2022-10-16T02:33:03;7.10;;;3.15;;
33148;SDS011;19506;51.040;3.856;2022-10-16T02:35:32;4.95;;;2.67;;
33148;SDS011;19506;51.040;3.856;2022-10-16T02:37:59;5.63;;;3.50;;
33148;SDS011;19506;51.040;3.856;2022-10-16T02:40:25;6.25;;;2.63;;
33148;SDS011;19506;51.040;3.856;2022-10-16T02:42:53;7.90;;;2.85;;
33148;SDS011;19506;51.040;3.856;2022-10-16T02:45:19;4.63;;;2.40;;
33148;SDS011;19506;51.040;3.856;2022-10-16T02:47:45;5.78;;;2.72;;
33148;SDS011;19506;51.040;3.856;2022-10-16T02:50:11;11.35;;;2.70;;
33148;SDS011;19506;51.040;3.856;2022-10-16T02:52:37;4.85;;;2.30;;
33148;SDS011;19506;51.040;3.856;2022-10-16T02:55:03;5.20;;;2.92;;
33148;SDS011;19506;51.040;3.856;2022-10-16T02:57:28;4.72;;;2.60;;
33148;SDS011;19506;51.040;3.856;2022-10-16T02:59:54;6.88;;;2.38;;
33148;SDS011;19506;51.040;3.856;2022-10-16T03:02:20;3.60;;;2.22;;
33148;SDS011;19506;51.040;3.856;2022-10-16T03:04:45;3.17;;;2.30;;
33148;SDS011;19506;51.040;3.856;2022-10-16T03:07:11;6.80;;;2.97;;
33148;SDS011;19506;51.040;3.856;2022-10-16T03:09:37;8.05;;;2.67;;
33148;SDS011;19506;51.040;3.856;2022-10-16T03:12:02;2.83;;;2.50;;
33148;SDS011;19506;51.040;3.856;2022-10-16T03:14:28;2.90;;;2.25;;
33148;SDS011;19506;51.040;3.856;2022-10-16T03:16:54;6.75;;;2.42;;
33148;SDS011;19506;51.040;3.856;2022-10-16T03:19:20;6.13;;;2.47;;
33148;SDS011;19506;51.040;3.856;2022-10-16T03:21:45;4.03;;;2.55;;
33148;SDS011;19506;51.040;3.856;2022-10-16T03:24:11;3.70;;;2.55;;
33148;SDS011;19506;51.040;3.856;2022-10-16T03:26:37;4.82;;;2.33;;
33148;SDS011;19506;51.040;3.856;2022-10-16T03:29:03;7.47;;;2.50;;
33148;SDS011;19506;51.040;3.856;2022-10-16T03:31:29;5.93;;;2.58;;
33148;SDS011;19506;51.040;3.856;2022-10-16T03:33:55;5.60;;;2.80;;
33148;SDS011;19506;51.040;3.856;2022-10-16T03:36:21;4.50;;;2.30;;
33148;SDS011;19506;51.040;3.856;2022-10-16T03:38:46;4.28;;;2.30;;
33148;SDS011;19506;51.040;3.856;2022-10-16T03:41:12;7.15;;;2.30;;
33148;SDS011;19506;51.040;3.856;2022-10-16T03:43:38;6.28;;;3.13;;
33148;SDS011;19506;51.040;3.856;2022-10-16T03:46:03;3.63;;;2.25;;
33148;SDS011;19506;51.040;3.856;2022-10-16T03:48:29;3.65;;;2.22;;
33148;SDS011;19506;51.040;3.856;2022-10-16T03:50:57;4.45;;;2.25;;
33148;SDS011;19506;51.040;3.856;2022-10-16T03:53:22;7.03;;;2.90;;
33148;SDS011;19506;51.040;3.856;2022-10-16T03:55:48;4.57;;;2.22;;
33148;SDS011;19506;51.040;3.856;2022-10-16T03:58:14;4.32;;;2.15;;
33148;SDS011;19506;51.040;3.856;2022-10-16T04:00:44;3.28;;;2.10;;
33148;SDS011;19506;51.040;3.856;2022-10-16T04:03:10;4.70;;;1.95;;
33148;SDS011;19506;51.040;3.856;2022-10-16T04:05:36;2.92;;;2.08;;
33148;SDS011;19506;51.040;3.856;2022-10-16T04:08:02;3.58;;;2.38;;
33148;SDS011;19506;51.040;3.856;2022-10-16T04:10:28;2.92;;;2.20;;
33148;SDS011;19506;51.040;3.856;2022-10-16T04:12:53;2.97;;;1.90;;
33148;SDS011;19506;51.040;3.856;2022-10-16T04:15:21;3.33;;;1.92;;
33148;SDS011;19506;51.040;3.856;2022-10-16T04:17:50;3.33;;;1.80;;
33148;SDS011;19506;51.040;3.856;2022-10-16T04:20:15;2.63;;;1.95;;
33148;SDS011;19506;51.040;3.856;2022-10-16T04:22:41;5.20;;;2.20;;
33148;SDS011;19506;51.040;3.856;2022-10-16T04:25:07;2.63;;;2.17;;
33148;SDS011;19506;51.040;3.856;2022-10-16T04:27:33;2.15;;;1.52;;
33148;SDS011;19506;51.040;3.856;2022-10-16T04:29:59;4.68;;;2.15;;
33148;SDS011;19506;51.040;3.856;2022-10-16T04:32:25;2.58;;;1.83;;
33148;SDS011;19506;51.040;3.856;2022-10-16T04:34:51;5.93;;;2.60;;
33148;SDS011;19506;51.040;3.856;2022-10-16T04:37:17;3.03;;;2.10;;
33148;SDS011;19506;51.040;3.856;2022-10-16T04:39:43;3.30;;;2.17;;
33148;SDS011;19506;51.040;3.856;2022-10-16T04:42:10;6.43;;;2.50;;
33148;SDS011;19506;51.040;3.856;2022-10-16T04:44:36;8.65;;;3.15;;
33148;SDS011;19506;51.040;3.856;2022-10-16T04:47:02;9.98;;;2.55;;
33148;SDS011;19506;51.040;3.856;2022-10-16T04:49:27;4.28;;;1.67;;
33148;SDS011;19506;51.040;3.856;2022-10-16T04:51:53;7.75;;;2.03;;
33148;SDS011;19506;51.040;3.856;2022-10-16T04:54:19;2.38;;;1.65;;
33148;SDS011;19506;51.040;3.856;2022-10-16T04:56:44;4.28;;;2.03;;
33148;SDS011;19506;51.040;3.856;2022-10-16T04:59:15;5.57;;;1.95;;
33148;SDS011;19506;51.040;3.856;2022-10-16T05:01:42;4.72;;;1.90;;
33148;SDS011;19506;51.040;3.856;2022-10-16T05:04:08;3.40;;;1.88;;
33148;SDS011;19506;51.040;3.856;2022-10-16T05:06:34;2.60;;;1.85;;
33148;SDS011;19506;51.040;3.856;2022-10-16T05:09:00;3.55;;;1.88;;
33148;SDS011;19506;51.040;3.856;2022-10-16T05:11:25;6.43;;;2.28;;
33148;SDS011;19506;51.040;3.856;2022-10-16T05:13:51;2.47;;;1.95;;
33148;SDS011;19506;51.040;3.856;2022-10-16T05:16:17;4.85;;;1.67;;
33148;SDS011;19506;51.040;3.856;2022-10-16T05:18:42;7.72;;;1.52;;
33148;SDS011;19506;51.040;3.856;2022-10-16T05:21:08;3.22;;;2.15;;
33148;SDS011;19506;51.040;3.856;2022-10-16T05:23:34;3.13;;;1.67;;
33148;SDS011;19506;51.040;3.856;2022-10-16T05:26:00;3.63;;;1.70;;
33148;SDS011;19506;51.040;3.856;2022-10-16T05:28:26;3.05;;;2.15;;
33148;SDS011;19506;51.040;3.856;2022-10-16T05:30:53;1.83;;;1.52;;
33148;SDS011;19506;51.040;3.856;2022-10-16T05:33:19;5.68;;;2.45;;
33148;SDS011;19506;51.040;3.856;2022-10-16T05:35:46;12.27;;;2.33;;
33148;SDS011;19506;51.040;3.856;2022-10-16T05:38:11;10.43;;;2.20;;
33148;SDS011;19506;51.040;3.856;2022-10-16T05:40:37;10.68;;;2.38;;
33148;SDS011;19506;51.040;3.856;2022-10-16T05:43:03;11.50;;;2.55;;
33148;SDS011;19506;51.040;3.856;2022-10-16T05:45:29;12.40;;;2.67;;
33148;SDS011;19506;51.040;3.856;2022-10-16T05:47:54;7.95;;;2.53;;
33148;SDS011;19506;51.040;3.856;2022-10-16T05:50:20;7.65;;;2.25;;
33148;SDS011;19506;51.040;3.856;2022-10-16T05:52:46;14.00;;;3.00;;
33148;SDS011;19506;51.040;3.856;2022-10-16T05:55:11;11.23;;;2.50;;
33148;SDS011;19506;51.040;3.856;2022-10-16T05:57:37;22.27;;;2.45;;
33148;SDS011;19506;51.040;3.856;2022-10-16T06:00:04;10.95;;;2.92;;
33148;SDS011;19506;51.040;3.856;2022-10-16T06:02:30;10.50;;;2.65;;
33148;SDS011;19506;51.040;3.856;2022-10-16T06:04:55;10.70;;;2.42;;
33148;SDS011;19506;51.040;3.856;2022-10-16T06:07:21;12.10;;;2.72;;
33148;SDS011;19506;51.040;3.856;2022-10-16T06:09:51;13.85;;;2.67;;
33148;SDS011;19506;51.040;3.856;2022-10-16T06:12:18;8.15;;;2.22;;
33148;SDS011;19506;51.040;3.856;2022-10-16T06:14:44;18.05;;;2.35;;
33148;SDS011;19506;51.040;3.856;2022-10-16T06:17:12;12.82;;;2.60;;
33148;SDS011;19506;51.040;3.856;2022-10-16T06:19:39;19.55;;;2.42;;
33148;SDS011;19506;51.040;3.856;2022-10-16T06:22:04;13.65;;;2.75;;
33148;SDS011;19506;51.040;3.856;2022-10-16T06:24:31;15.13;;;2.53;;
33148;SDS011;19506;51.040;3.856;2022-10-16T06:26:56;19.33;;;2.88;;
33148;SDS011;19506;51.040;3.856;2022-10-16T06:29:22;16.83;;;2.33;;
33148;SDS011;19506;51.040;3.856;2022-10-16T06:31:48;10.07;;;2.72;;
33148;SDS011;19506;51.040;3.856;2022-10-16T06:34:13;11.82;;;2.40;;
33148;SDS011;19506;51.040;3.856;2022-10-16T06:36:39;13.52;;;2.83;;
33148;SDS011;19506;51.040;3.856;2022-10-16T06:39:06;9.75;;;2.63;;
33148;SDS011;19506;51.040;3.856;2022-10-16T06:41:32;21.45;;;2.65;;
33148;SDS011;19506;51.040;3.856;2022-10-16T06:43:58;13.02;;;2.50;;
33148;SDS011;19506;51.040;3.856;2022-10-16T06:46:24;5.25;;;2.45;;
33148;SDS011;19506;51.040;3.856;2022-10-16T06:48:52;26.80;;;3.08;;
33148;SDS011;19506;51.040;3.856;2022-10-16T06:51:22;8.73;;;2.22;;
33148;SDS011;19506;51.040;3.856;2022-10-16T06:53:49;7.97;;;2.20;;
33148;SDS011;19506;51.040;3.856;2022-10-16T06:56:21;6.90;;;2.05;;
33148;SDS011;19506;51.040;3.856;2022-10-16T06:58:49;5.55;;;2.15;;
33148;SDS011;19506;51.040;3.856;2022-10-16T07:01:16;7.07;;;1.90;;
33148;SDS011;19506;51.040;3.856;2022-10-16T07:03:44;9.73;;;2.10;;
33148;SDS011;19506;51.040;3.856;2022-10-16T07:06:11;7.55;;;1.80;;
33148;SDS011;19506;51.040;3.856;2022-10-16T07:08:39;9.13;;;1.92;;
33148;SDS011;19506;51.040;3.856;2022-10-16T07:11:08;8.88;;;1.65;;
33148;SDS011;19506;51.040;3.856;2022-10-16T07:13:35;8.27;;;1.65;;
33148;SDS011;19506;51.040;3.856;2022-10-16T07:16:10;8.10;;;1.95;;
33148;SDS011;19506;51.040;3.856;2022-10-16T07:18:37;5.63;;;1.85;;
33148;SDS011;19506;51.040;3.856;2022-10-16T07:21:09;12.82;;;2.25;;
33148;SDS011;19506;51.040;3.856;2022-10-16T07:23:35;7.07;;;1.90;;
33148;SDS011;19506;51.040;3.856;2022-10-16T07:26:02;6.20;;;2.10;;
33148;SDS011;19506;51.040;3.856;2022-10-16T07:28:28;13.70;;;2.10;;
33148;SDS011;19506;51.040;3.856;2022-10-16T07:30:54;4.32;;;1.95;;
33148;SDS011;19506;51.040;3.856;2022-10-16T07:33:20;11.15;;;2.08;;
33148;SDS011;19506;51.040;3.856;2022-10-16T07:35:50;16.23;;;2.38;;
33148;SDS011;19506;51.040;3.856;2022-10-16T07:38:17;11.23;;;2.08;;
33148;SDS011;19506;51.040;3.856;2022-10-16T07:40:43;8.40;;;2.22;;
33148;SDS011;19506;51.040;3.856;2022-10-16T07:43:08;6.40;;;1.73;;
33148;SDS011;19506;51.040;3.856;2022-10-16T07:45:34;2.95;;;1.38;;
33148;SDS011;19506;51.040;3.856;2022-10-16T07:48:00;8.13;;;2.30;;
33148;SDS011;19506;51.040;3.856;2022-10-16T07:50:25;6.93;;;2.05;;
33148;SDS011;19506;51.040;3.856;2022-10-16T07:52:51;7.75;;;2.22;;
33148;SDS011;19506;51.040;3.856;2022-10-16T07:55:17;4.07;;;1.70;;
33148;SDS011;19506;51.040;3.856;2022-10-16T07:57:43;12.27;;;2.10;;
33148;SDS011;19506;51.040;3.856;2022-10-16T08:00:09;8.40;;;2.63;;
33148;SDS011;19506;51.040;3.856;2022-10-16T08:02:38;5.45;;;1.75;;
33148;SDS011;19506;51.040;3.856;2022-10-16T08:05:05;7.97;;;2.20;;
33148;SDS011;19506;51.040;3.856;2022-10-16T08:07:31;4.40;;;1.70;;
33148;SDS011;19506;51.040;3.856;2022-10-16T08:09:57;3.92;;;1.60;;
33148;SDS011;19506;51.040;3.856;2022-10-16T08:12:24;8.18;;;1.58;;
33148;SDS011;19506;51.040;3.856;2022-10-16T08:14:52;6.60;;;1.35;;
33148;SDS011;19506;51.040;3.856;2022-10-16T08:17:18;11.70;;;1.70;;
33148;SDS011;19506;51.040;3.856;2022-10-16T08:19:44;5.20;;;1.40;;
33148;SDS011;19506;51.040;3.856;2022-10-16T08:22:10;8.13;;;1.48;;
33148;SDS011;19506;51.040;3.856;2022-10-16T08:24:36;7.95;;;2.00;;
33148;SDS011;19506;51.040;3.856;2022-10-16T08:27:02;4.65;;;1.67;;
33148;SDS011;19506;51.040;3.856;2022-10-16T08:29:28;3.55;;;1.30;;
33148;SDS011;19506;51.040;3.856;2022-10-16T08:31:54;5.65;;;1.40;;
33148;SDS011;19506;51.040;3.856;2022-10-16T08:34:20;7.07;;;2.17;;
33148;SDS011;19506;51.040;3.856;2022-10-16T08:36:45;7.43;;;1.63;;
33148;SDS011;19506;51.040;3.856;2022-10-16T08:39:11;8.05;;;1.67;;
33148;SDS011;19506;51.040;3.856;2022-10-16T08:46:53;4.70;;;1.35;;
33148;SDS011;19506;51.040;3.856;2022-10-16T08:49:30;10.70;;;1.80;;
33148;SDS011;19506;51.040;3.856;2022-10-16T08:51:56;5.70;;;1.60;;
33148;SDS011;19506;51.040;3.856;2022-10-16T08:54:36;5.53;;;1.27;;
33148;SDS011;19506;51.040;3.856;2022-10-16T08:57:09;5.60;;;1.52;;
33148;SDS011;19506;51.040;3.856;2022-10-16T08:59:37;10.13;;;1.80;;
33148;SDS011;19506;51.040;3.856;2022-10-16T09:02:02;5.40;;;1.70;;
33148;SDS011;19506;51.040;3.856;2022-10-16T09:04:56;7.60;;;1.80;;
33148;SDS011;19506;51.040;3.856;2022-10-16T09:07:55;5.38;;;1.50;;
33148;SDS011;19506;51.040;3.856;2022-10-16T09:15:47;6.82;;;2.03;;
33148;SDS011;19506;51.040;3.856;2022-10-16T09:18:39;6.55;;;1.42;;
33148;SDS011;19506;51.040;3.856;2022-10-16T09:23:49;5.75;;;1.63;;
33148;SDS011;19506;51.040;3.856;2022-10-16T09:26:15;6.10;;;2.17;;
33148;SDS011;19506;51.040;3.856;2022-10-16T09:28:43;10.55;;;1.85;;
33148;SDS011;19506;51.040;3.856;2022-10-16T09:31:12;7.80;;;1.60;;
33148;SDS011;19506;51.040;3.856;2022-10-16T09:33:41;4.07;;;1.48;;
33148;SDS011;19506;51.040;3.856;2022-10-16T09:36:08;7.43;;;1.35;;
33148;SDS011;19506;51.040;3.856;2022-10-16T09:38:35;9.00;;;1.55;;
33148;SDS011;19506;51.040;3.856;2022-10-16T09:41:03;3.00;;;1.63;;
33148;SDS011;19506;51.040;3.856;2022-10-16T09:43:47;12.10;;;1.48;;
33148;SDS011;19506;51.040;3.856;2022-10-16T09:46:35;7.97;;;1.83;;
33148;SDS011;19506;51.040;3.856;2022-10-16T09:51:31;8.30;;;1.95;;
33148;SDS011;19506;51.040;3.856;2022-10-16T09:54:21;5.38;;;1.67;;
33148;SDS011;19506;51.040;3.856;2022-10-16T09:56:46;16.00;;;2.25;;
33148;SDS011;19506;51.040;3.856;2022-10-16T09:59:20;2.95;;;1.45;;
33148;SDS011;19506;51.040;3.856;2022-10-16T10:01:55;12.38;;;3.05;;
33148;SDS011;19506;51.040;3.856;2022-10-16T10:04:24;8.68;;;1.60;;
33148;SDS011;19506;51.040;3.856;2022-10-16T10:06:54;10.95;;;1.88;;
33148;SDS011;19506;51.040;3.856;2022-10-16T10:14:26;14.82;;;4.20;;
33148;SDS011;19506;51.040;3.856;2022-10-16T10:19:42;20.40;;;3.92;;
33148;SDS011;19506;51.040;3.856;2022-10-16T10:22:23;27.73;;;5.47;;
33148;SDS011;19506;51.040;3.856;2022-10-16T10:25:14;26.50;;;6.22;;
33148;SDS011;19506;51.040;3.856;2022-10-16T10:27:48;41.67;;;7.60;;
33148;SDS011;19506;51.040;3.856;2022-10-16T10:41:39;64.32;;;13.98;;
33148;SDS011;19506;51.040;3.856;2022-10-16T10:44:22;45.15;;;9.82;;
33148;SDS011;19506;51.040;3.856;2022-10-16T10:46:55;31.52;;;6.25;;
33148;SDS011;19506;51.040;3.856;2022-10-16T10:49:45;44.95;;;10.02;;
33148;SDS011;19506;51.040;3.856;2022-10-16T10:52:38;57.72;;;13.70;;
33148;SDS011;19506;51.040;3.856;2022-10-16T10:58:39;21.10;;;6.00;;
33148;SDS011;19506;51.040;3.856;2022-10-16T11:01:16;33.60;;;6.50;;
33148;SDS011;19506;51.040;3.856;2022-10-16T11:06:42;50.97;;;9.55;;
33148;SDS011;19506;51.040;3.856;2022-10-16T11:09:17;12.65;;;3.55;;
33148;SDS011;19506;51.040;3.856;2022-10-16T11:11:47;42.25;;;8.95;;
33148;SDS011;19506;51.040;3.856;2022-10-16T11:14:31;32.58;;;5.40;;
33148;SDS011;19506;51.040;3.856;2022-10-16T11:16:58;32.10;;;8.05;;
33148;SDS011;19506;51.040;3.856;2022-10-16T11:19:41;34.15;;;8.95;;
33148;SDS011;19506;51.040;3.856;2022-10-16T11:25:02;44.17;;;9.40;;
33148;SDS011;19506;51.040;3.856;2022-10-16T11:27:40;23.73;;;4.47;;
33148;SDS011;19506;51.040;3.856;2022-10-16T11:30:28;19.25;;;3.47;;
33148;SDS011;19506;51.040;3.856;2022-10-16T11:35:42;32.15;;;6.35;;
33148;SDS011;19506;51.040;3.856;2022-10-16T11:43:46;36.40;;;8.60;;
33148;SDS011;19506;51.040;3.856;2022-10-16T11:46:29;35.42;;;7.88;;
33148;SDS011;19506;51.040;3.856;2022-10-16T11:49:00;36.80;;;10.15;;
33148;SDS011;19506;51.040;3.856;2022-10-16T11:54:20;38.92;;;8.48;;
33148;SDS011;19506;51.040;3.856;2022-10-16T11:56:50;39.63;;;10.43;;
33148;SDS011;19506;51.040;3.856;2022-10-16T12:02:15;43.42;;;8.63;;
33148;SDS011;19506;51.040;3.856;2022-10-16T12:04:56;34.92;;;8.43;;
33148;SDS011;19506;51.040;3.856;2022-10-16T12:10:31;33.33;;;8.83;;
33148;SDS011;19506;51.040;3.856;2022-10-16T12:13:01;34.17;;;8.15;;
33148;SDS011;19506;51.040;3.856;2022-10-16T12:15:30;34.35;;;9.38;;
33148;SDS011;19506;51.040;3.856;2022-10-16T12:17:58;42.75;;;9.60;;
33148;SDS011;19506;51.040;3.856;2022-10-16T12:23:00;28.88;;;7.28;;
33148;SDS011;19506;51.040;3.856;2022-10-16T12:28:00;31.73;;;6.63;;
33148;SDS011;19506;51.040;3.856;2022-10-16T12:30:27;27.35;;;7.18;;
33148;SDS011;19506;51.040;3.856;2022-10-16T12:32:56;26.70;;;7.57;;
33148;SDS011;19506;51.040;3.856;2022-10-16T12:35:25;25.63;;;6.88;;
33148;SDS011;19506;51.040;3.856;2022-10-16T12:37:53;30.92;;;6.50;;
33148;SDS011;19506;51.040;3.856;2022-10-16T12:40:30;21.55;;;6.97;;
33148;SDS011;19506;51.040;3.856;2022-10-16T12:42:57;22.83;;;6.47;;
33148;SDS011;19506;51.040;3.856;2022-10-16T12:47:57;23.60;;;6.30;;
33148;SDS011;19506;51.040;3.856;2022-10-16T12:50:32;31.50;;;6.82;;
33148;SDS011;19506;51.040;3.856;2022-10-16T12:53:00;22.60;;;7.03;;
33148;SDS011;19506;51.040;3.856;2022-10-16T12:55:27;24.85;;;6.30;;
33148;SDS011;19506;51.040;3.856;2022-10-16T13:08:30;26.92;;;5.70;;
33148;SDS011;19506;51.040;3.856;2022-10-16T13:20:19;25.85;;;6.22;;
33148;SDS011;19506;51.040;3.856;2022-10-16T13:27:54;24.15;;;4.75;;
33148;SDS011;19506;51.040;3.856;2022-10-16T13:33:36;21.25;;;6.10;;
33148;SDS011;19506;51.040;3.856;2022-10-16T13:35:54;27.00;;;6.13;;
33148;SDS011;19506;51.040;3.856;2022-10-16T13:38:22;23.52;;;5.03;;
33148;SDS011;19506;51.040;3.856;2022-10-16T13:40:53;22.42;;;5.38;;
33148;SDS011;19506;51.040;3.856;2022-10-16T13:43:28;16.20;;;4.82;;
33148;SDS011;19506;51.040;3.856;2022-10-16T13:46:00;22.33;;;5.43;;
33148;SDS011;19506;51.040;3.856;2022-10-16T13:48:28;26.10;;;5.55;;
33148;SDS011;19506;51.040;3.856;2022-10-16T13:50:58;26.20;;;6.18;;
33148;SDS011;19506;51.040;3.856;2022-10-16T13:53:45;21.10;;;4.93;;
33148;SDS011;19506;51.040;3.856;2022-10-16T13:56:12;20.48;;;5.28;;
33148;SDS011;19506;51.040;3.856;2022-10-16T13:58:39;18.70;;;4.90;;
33148;SDS011;19506;51.040;3.856;2022-10-16T14:01:52;23.67;;;5.55;;
33148;SDS011;19506;51.040;3.856;2022-10-16T14:03:59;34.03;;;5.28;;
33148;SDS011;19506;51.040;3.856;2022-10-16T14:06:30;32.95;;;6.25;;
33148;SDS011;19506;51.040;3.856;2022-10-16T14:09:02;26.23;;;6.00;;
33148;SDS011;19506;51.040;3.856;2022-10-16T14:11:31;26.13;;;6.18;;
33148;SDS011;19506;51.040;3.856;2022-10-16T14:13:58;25.42;;;5.50;;
33148;SDS011;19506;51.040;3.856;2022-10-16T14:16:25;21.73;;;6.65;;
33148;SDS011;19506;51.040;3.856;2022-10-16T14:18:56;33.15;;;5.65;;
33148;SDS011;19506;51.040;3.856;2022-10-16T14:21:31;33.30;;;5.78;;
33148;SDS011;19506;51.040;3.856;2022-10-16T14:23:58;21.05;;;4.75;;
33148;SDS011;19506;51.040;3.856;2022-10-16T14:26:28;19.45;;;4.82;;
33148;SDS011;19506;51.040;3.856;2022-10-16T14:29:08;24.38;;;6.97;;
33148;SDS011;19506;51.040;3.856;2022-10-16T14:31:40;28.10;;;5.90;;
33148;SDS011;19506;51.040;3.856;2022-10-16T14:34:23;20.55;;;4.10;;
33148;SDS011;19506;51.040;3.856;2022-10-16T14:36:50;13.35;;;4.22;;
33148;SDS011;19506;51.040;3.856;2022-10-16T14:39:22;18.75;;;4.30;;
33148;SDS011;19506;51.040;3.856;2022-10-16T14:41:51;23.92;;;5.78;;
33148;SDS011;19506;51.040;3.856;2022-10-16T14:44:17;26.73;;;5.20;;
33148;SDS011;19506;51.040;3.856;2022-10-16T14:46:44;19.35;;;6.35;;
33148;SDS011;19506;51.040;3.856;2022-10-16T14:51:36;28.65;;;4.85;;
33148;SDS011;19506;51.040;3.856;2022-10-16T14:54:07;20.08;;;5.25;;
33148;SDS011;19506;51.040;3.856;2022-10-16T14:56:40;27.65;;;7.10;;
33148;SDS011;19506;51.040;3.856;2022-10-16T14:59:34;14.50;;;4.55;;
33148;SDS011;19506;51.040;3.856;2022-10-16T15:02:35;30.77;;;5.65;;
33148;SDS011;19506;51.040;3.856;2022-10-16T15:04:58;21.95;;;4.40;;
33148;SDS011;19506;51.040;3.856;2022-10-16T15:07:42;18.75;;;5.03;;
33148;SDS011;19506;51.040;3.856;2022-10-16T15:10:09;20.90;;;4.97;;
33148;SDS011;19506;51.040;3.856;2022-10-16T15:12:35;24.00;;;4.63;;
33148;SDS011;19506;51.040;3.856;2022-10-16T15:15:01;19.05;;;4.85;;
33148;SDS011;19506;51.040;3.856;2022-10-16T15:17:27;33.72;;;5.53;;
33148;SDS011;19506;51.040;3.856;2022-10-16T15:19:52;28.27;;;5.57;;
33148;SDS011;19506;51.040;3.856;2022-10-16T15:22:18;22.80;;;5.18;;
33148;SDS011;19506;51.040;3.856;2022-10-16T15:24:43;34.22;;;5.38;;
33148;SDS011;19506;51.040;3.856;2022-10-16T15:27:09;23.02;;;4.65;;
33148;SDS011;19506;51.040;3.856;2022-10-16T15:29:35;19.55;;;5.03;;
33148;SDS011;19506;51.040;3.856;2022-10-16T15:32:00;28.27;;;4.93;;
33148;SDS011;19506;51.040;3.856;2022-10-16T15:34:26;19.75;;;4.70;;
33148;SDS011;19506;51.040;3.856;2022-10-16T15:36:52;28.00;;;4.93;;
33148;SDS011;19506;51.040;3.856;2022-10-16T15:39:20;25.40;;;4.72;;
33148;SDS011;19506;51.040;3.856;2022-10-16T15:41:46;16.50;;;4.82;;
33148;SDS011;19506;51.040;3.856;2022-10-16T15:44:16;19.35;;;4.53;;
33148;SDS011;19506;51.040;3.856;2022-10-16T15:46:42;24.63;;;4.78;;
33148;SDS011;19506;51.040;3.856;2022-10-16T15:49:08;17.02;;;4.22;;
33148;SDS011;19506;51.040;3.856;2022-10-16T15:51:35;18.75;;;3.78;;
33148;SDS011;19506;51.040;3.856;2022-10-16T15:54:03;19.30;;;5.25;;
33148;SDS011;19506;51.040;3.856;2022-10-16T15:56:29;24.52;;;4.25;;
33148;SDS011;19506;51.040;3.856;2022-10-16T15:58:58;11.40;;;3.47;;
33148;SDS011;19506;51.040;3.856;2022-10-16T16:01:24;16.80;;;3.83;;
33148;SDS011;19506;51.040;3.856;2022-10-16T16:03:54;19.92;;;3.78;;
33148;SDS011;19506;51.040;3.856;2022-10-16T16:06:20;27.20;;;4.03;;
33148;SDS011;19506;51.040;3.856;2022-10-16T16:08:46;20.20;;;3.78;;
33148;SDS011;19506;51.040;3.856;2022-10-16T16:11:13;15.00;;;4.20;;
33148;SDS011;19506;51.040;3.856;2022-10-16T16:13:40;20.92;;;4.22;;
33148;SDS011;19506;51.040;3.856;2022-10-16T16:16:07;15.82;;;4.45;;
33148;SDS011;19506;51.040;3.856;2022-10-16T16:18:34;25.17;;;6.53;;
33148;SDS011;19506;51.040;3.856;2022-10-16T16:21:00;20.85;;;5.63;;
33148;SDS011;19506;51.040;3.856;2022-10-16T16:23:26;19.75;;;4.75;;
33148;SDS011;19506;51.040;3.856;2022-10-16T16:26:04;20.35;;;4.93;;
33148;SDS011;19506;51.040;3.856;2022-10-16T16:28:38;15.80;;;4.72;;
33148;SDS011;19506;51.040;3.856;2022-10-16T16:31:05;26.42;;;3.38;;
33148;SDS011;19506;51.040;3.856;2022-10-16T16:33:30;27.67;;;4.63;;
33148;SDS011;19506;51.040;3.856;2022-10-16T16:36:00;31.75;;;5.07;;
33148;SDS011;19506;51.040;3.856;2022-10-16T16:38:27;22.77;;;5.85;;
33148;SDS011;19506;51.040;3.856;2022-10-16T16:40:53;37.92;;;6.95;;
33148;SDS011;19506;51.040;3.856;2022-10-16T16:43:23;28.30;;;4.60;;
33148;SDS011;19506;51.040;3.856;2022-10-16T16:45:53;24.20;;;5.95;;